Flinthill, Missouri
Current Conditions -  °F | °C
As of 3:54 AM on Friday 31 Oct 2014 (Local Time) from KSUS Reporting Station
Overcast Overcast  
Wind Chill: 44°   Ceiling: 9500
Heat Index: 46°   Visibility: 10mi
Dew Point: 43°   Wind: 5mph
Humidity: 89%   Direction: 310°NW
Pressure: 30.11"   Gusts: NA
Location:  38.86°N, 90.86°W
Report Text: KSUS 310854Z AUTO 31004KT 10SM OVC095 08/06 A3011 RMK AO2 SLP196 T00780061 53015
Loading
Personal Weather Stations






























Interactive Weather Map
Tropical Storm Tracking
New forecast layout! Learn more

10-Day Weather Forecast

Advertisements
Track Severe Weather on mobile